sensor_id;sensor_type;location;lat;lon;timestamp;temperature;humidity
21429;DHT22;10875;50.444;30.540;2022-07-06T00:01:54;25.00;95.40
21429;DHT22;10875;50.444;30.540;2022-07-06T00:04:19;25.00;95.60
21429;DHT22;10875;50.444;30.540;2022-07-06T00:06:45;25.00;95.70
21429;DHT22;10875;50.444;30.540;2022-07-06T00:09:10;24.90;95.90
21429;DHT22;10875;50.444;30.540;2022-07-06T00:11:36;25.00;96.20
21429;DHT22;10875;50.444;30.540;2022-07-06T00:14:01;24.90;96.40
21429;DHT22;10875;50.444;30.540;2022-07-06T00:16:27;25.00;96.60
21429;DHT22;10875;50.444;30.540;2022-07-06T00:18:53;25.00;96.80
21429;DHT22;10875;50.444;30.540;2022-07-06T00:21:19;24.90;97.10
21429;DHT22;10875;50.444;30.540;2022-07-06T00:23:44;24.90;97.40
21429;DHT22;10875;50.444;30.540;2022-07-06T00:26:10;24.90;97.60
21429;DHT22;10875;50.444;30.540;2022-07-06T00:28:36;24.90;98.00
21429;DHT22;10875;50.444;30.540;2022-07-06T00:31:01;24.90;98.20
21429;DHT22;10875;50.444;30.540;2022-07-06T00:33:27;24.90;98.50
21429;DHT22;10875;50.444;30.540;2022-07-06T00:35:52;24.90;99.00
21429;DHT22;10875;50.444;30.540;2022-07-06T00:38:18;24.80;99.50
21429;DHT22;10875;50.444;30.540;2022-07-06T00:40:43;24.80;99.90
21429;DHT22;10875;50.444;30.540;2022-07-06T00:43:09;24.80;99.90
21429;DHT22;10875;50.444;30.540;2022-07-06T00:45:34;24.70;99.90
21429;DHT22;10875;50.444;30.540;2022-07-06T00:48:00;24.80;99.90
21429;DHT22;10875;50.444;30.540;2022-07-06T00:50:25;24.80;99.90
21429;DHT22;10875;50.444;30.540;2022-07-06T00:53:00;24.70;99.90
21429;DHT22;10875;50.444;30.540;2022-07-06T00:55:28;24.70;99.90
21429;DHT22;10875;50.444;30.540;2022-07-06T00:57:54;24.60;99.90
21429;DHT22;10875;50.444;30.540;2022-07-06T01:00:21;24.70;99.90
21429;DHT22;10875;50.444;30.540;2022-07-06T01:02:47;24.60;99.90
21429;DHT22;10875;50.444;30.540;2022-07-06T01:05:13;24.50;99.90
21429;DHT22;10875;50.444;30.540;2022-07-06T01:07:40;24.60;99.90
21429;DHT22;10875;50.444;30.540;2022-07-06T01:10:06;24.60;99.90
21429;DHT22;10875;50.444;30.540;2022-07-06T01:12:34;24.60;99.90
21429;DHT22;10875;50.444;30.540;2022-07-06T01:15:00;24.60;99.90
21429;DHT22;10875;50.444;30.540;2022-07-06T01:17:25;24.60;99.90
21429;DHT22;10875;50.444;30.540;2022-07-06T01:19:51;24.60;99.90
21429;DHT22;10875;50.444;30.540;2022-07-06T01:22:16;24.60;99.90
21429;DHT22;10875;50.444;30.540;2022-07-06T01:24:42;24.70;99.90
21429;DHT22;10875;50.444;30.540;2022-07-06T01:27:07;24.70;99.90
21429;DHT22;10875;50.444;30.540;2022-07-06T01:29:33;24.70;99.90
21429;DHT22;10875;50.444;30.540;2022-07-06T01:31:59;24.70;99.90
21429;DHT22;10875;50.444;30.540;2022-07-06T01:34:24;24.70;99.90
21429;DHT22;10875;50.444;30.540;2022-07-06T01:36:50;24.80;99.90
21429;DHT22;10875;50.444;30.540;2022-07-06T01:39:16;24.80;99.90
21429;DHT22;10875;50.444;30.540;2022-07-06T01:41:41;24.80;99.90
21429;DHT22;10875;50.444;30.540;2022-07-06T01:44:07;24.80;99.90
21429;DHT22;10875;50.444;30.540;2022-07-06T01:46:32;24.90;99.90
21429;DHT22;10875;50.444;30.540;2022-07-06T01:48:58;24.90;99.90
21429;DHT22;10875;50.444;30.540;2022-07-06T01:51:23;24.90;99.90
21429;DHT22;10875;50.444;30.540;2022-07-06T01:53:49;24.80;99.90
21429;DHT22;10875;50.444;30.540;2022-07-06T01:56:15;24.80;99.90
21429;DHT22;10875;50.444;30.540;2022-07-06T01:58:41;24.70;99.90
21429;DHT22;10875;50.444;30.540;2022-07-06T02:01:10;24.70;99.90
21429;DHT22;10875;50.444;30.540;2022-07-06T02:03:36;24.60;99.90
21429;DHT22;10875;50.444;30.540;2022-07-06T02:06:03;24.50;99.90
21429;DHT22;10875;50.444;30.540;2022-07-06T02:08:29;24.40;99.90
21429;DHT22;10875;50.444;30.540;2022-07-06T02:10:55;24.30;99.90
21429;DHT22;10875;50.444;30.540;2022-07-06T02:13:20;24.40;99.90
21429;DHT22;10875;50.444;30.540;2022-07-06T02:15:46;24.40;99.90
21429;DHT22;10875;50.444;30.540;2022-07-06T02:18:11;24.40;99.90
21429;DHT22;10875;50.444;30.540;2022-07-06T02:20:37;24.50;99.90
21429;DHT22;10875;50.444;30.540;2022-07-06T02:23:02;24.40;99.90
21429;DHT22;10875;50.444;30.540;2022-07-06T02:25:28;24.40;99.90
21429;DHT22;10875;50.444;30.540;2022-07-06T02:27:53;24.40;99.90
21429;DHT22;10875;50.444;30.540;2022-07-06T02:30:19;24.30;99.90
21429;DHT22;10875;50.444;30.540;2022-07-06T02:32:44;24.20;99.90
21429;DHT22;10875;50.444;30.540;2022-07-06T02:35:10;24.20;99.90
21429;DHT22;10875;50.444;30.540;2022-07-06T02:37:35;24.10;99.90
21429;DHT22;10875;50.444;30.540;2022-07-06T02:40:01;24.10;99.90
21429;DHT22;10875;50.444;30.540;2022-07-06T02:42:26;24.10;99.90
21429;DHT22;10875;50.444;30.540;2022-07-06T02:44:52;24.10;99.90
21429;DHT22;10875;50.444;30.540;2022-07-06T02:47:18;24.20;99.90
21429;DHT22;10875;50.444;30.540;2022-07-06T02:49:44;24.10;99.90
21429;DHT22;10875;50.444;30.540;2022-07-06T02:52:09;24.10;99.90
21429;DHT22;10875;50.444;30.540;2022-07-06T02:54:35;24.10;99.90
21429;DHT22;10875;50.444;30.540;2022-07-06T02:57:00;24.10;99.90
21429;DHT22;10875;50.444;30.540;2022-07-06T02:59:26;24.10;99.90
21429;DHT22;10875;50.444;30.540;2022-07-06T03:01:51;24.10;99.90
21429;DHT22;10875;50.444;30.540;2022-07-06T03:04:17;24.10;99.90
21429;DHT22;10875;50.444;30.540;2022-07-06T03:06:42;24.10;99.90
21429;DHT22;10875;50.444;30.540;2022-07-06T03:09:07;24.00;99.90
21429;DHT22;10875;50.444;30.540;2022-07-06T03:11:33;24.10;99.90
21429;DHT22;10875;50.444;30.540;2022-07-06T03:14:02;24.00;99.90
21429;DHT22;10875;50.444;30.540;2022-07-06T03:16:28;24.00;99.90
21429;DHT22;10875;50.444;30.540;2022-07-06T03:18:53;24.00;99.90
21429;DHT22;10875;50.444;30.540;2022-07-06T03:21:19;24.10;99.90
21429;DHT22;10875;50.444;30.540;2022-07-06T03:23:44;24.00;99.90
21429;DHT22;10875;50.444;30.540;2022-07-06T03:26:10;24.10;99.90
21429;DHT22;10875;50.444;30.540;2022-07-06T03:28:35;24.10;99.90
21429;DHT22;10875;50.444;30.540;2022-07-06T03:31:01;24.10;99.90
21429;DHT22;10875;50.444;30.540;2022-07-06T03:33:26;24.10;99.90
21429;DHT22;10875;50.444;30.540;2022-07-06T03:35:52;24.20;99.90
21429;DHT22;10875;50.444;30.540;2022-07-06T03:38:17;24.30;99.90
21429;DHT22;10875;50.444;30.540;2022-07-06T03:40:43;24.30;99.90
21429;DHT22;10875;50.444;30.540;2022-07-06T03:43:08;24.30;99.90
21429;DHT22;10875;50.444;30.540;2022-07-06T03:45:34;24.40;99.90
21429;DHT22;10875;50.444;30.540;2022-07-06T03:47:59;24.40;99.90
21429;DHT22;10875;50.444;30.540;2022-07-06T03:50:24;24.50;99.90
21429;DHT22;10875;50.444;30.540;2022-07-06T03:52:50;24.50;99.90
21429;DHT22;10875;50.444;30.540;2022-07-06T03:55:15;24.50;99.90
21429;DHT22;10875;50.444;30.540;2022-07-06T03:57:41;24.60;99.90
21429;DHT22;10875;50.444;30.540;2022-07-06T04:00:07;24.60;99.90
21429;DHT22;10875;50.444;30.540;2022-07-06T04:02:33;24.70;99.90
21429;DHT22;10875;50.444;30.540;2022-07-06T04:04:58;24.80;99.90
21429;DHT22;10875;50.444;30.540;2022-07-06T04:07:24;24.80;99.90
21429;DHT22;10875;50.444;30.540;2022-07-06T04:09:50;24.90;99.90
21429;DHT22;10875;50.444;30.540;2022-07-06T04:12:15;25.00;99.90
21429;DHT22;10875;50.444;30.540;2022-07-06T04:14:42;25.00;99.90
21429;DHT22;10875;50.444;30.540;2022-07-06T04:17:07;25.10;99.70
21429;DHT22;10875;50.444;30.540;2022-07-06T04:19:51;25.20;99.50
21429;DHT22;10875;50.444;30.540;2022-07-06T04:22:17;25.20;98.90
21429;DHT22;10875;50.444;30.540;2022-07-06T04:24:42;25.20;98.70
21429;DHT22;10875;50.444;30.540;2022-07-06T04:27:08;25.20;98.40
21429;DHT22;10875;50.444;30.540;2022-07-06T04:29:33;25.20;98.20
21429;DHT22;10875;50.444;30.540;2022-07-06T04:31:59;25.20;98.00
21429;DHT22;10875;50.444;30.540;2022-07-06T04:34:24;25.30;98.40
21429;DHT22;10875;50.444;30.540;2022-07-06T04:36:50;25.20;98.50
21429;DHT22;10875;50.444;30.540;2022-07-06T04:39:15;25.40;98.50
21429;DHT22;10875;50.444;30.540;2022-07-06T04:41:41;25.30;98.50
21429;DHT22;10875;50.444;30.540;2022-07-06T04:44:06;25.30;98.10
21429;DHT22;10875;50.444;30.540;2022-07-06T04:46:31;25.30;97.90
21429;DHT22;10875;50.444;30.540;2022-07-06T04:48:57;25.40;98.00
21429;DHT22;10875;50.444;30.540;2022-07-06T04:51:22;25.50;98.10
21429;DHT22;10875;50.444;30.540;2022-07-06T04:53:48;25.50;97.90
21429;DHT22;10875;50.444;30.540;2022-07-06T04:56:13;25.60;98.00
21429;DHT22;10875;50.444;30.540;2022-07-06T04:58:39;25.70;97.90
21429;DHT22;10875;50.444;30.540;2022-07-06T05:01:04;25.80;97.40
21429;DHT22;10875;50.444;30.540;2022-07-06T05:03:30;25.70;97.30
21429;DHT22;10875;50.444;30.540;2022-07-06T05:05:55;25.80;97.70
21429;DHT22;10875;50.444;30.540;2022-07-06T05:08:21;25.80;97.20
21429;DHT22;10875;50.444;30.540;2022-07-06T05:10:47;25.80;97.50
21429;DHT22;10875;50.444;30.540;2022-07-06T05:13:13;25.80;97.60
21429;DHT22;10875;50.444;30.540;2022-07-06T05:15:38;25.80;97.50
21429;DHT22;10875;50.444;30.540;2022-07-06T05:18:04;25.90;97.40
21429;DHT22;10875;50.444;30.540;2022-07-06T05:20:29;26.00;97.30
21429;DHT22;10875;50.444;30.540;2022-07-06T05:22:55;25.90;97.50
21429;DHT22;10875;50.444;30.540;2022-07-06T05:25:21;25.90;97.50
21429;DHT22;10875;50.444;30.540;2022-07-06T05:27:46;26.00;97.50
21429;DHT22;10875;50.444;30.540;2022-07-06T05:30:12;26.00;97.20
21429;DHT22;10875;50.444;30.540;2022-07-06T05:32:37;26.10;97.30
21429;DHT22;10875;50.444;30.540;2022-07-06T05:35:03;26.30;97.00
21429;DHT22;10875;50.444;30.540;2022-07-06T05:37:28;26.40;96.90
21429;DHT22;10875;50.444;30.540;2022-07-06T05:39:54;26.40;97.00
21429;DHT22;10875;50.444;30.540;2022-07-06T05:42:19;26.60;96.60
21429;DHT22;10875;50.444;30.540;2022-07-06T05:44:45;26.70;97.00
21429;DHT22;10875;50.444;30.540;2022-07-06T05:47:10;26.80;97.20
21429;DHT22;10875;50.444;30.540;2022-07-06T05:49:59;26.80;97.10
21429;DHT22;10875;50.444;30.540;2022-07-06T05:52:37;26.70;97.00
21429;DHT22;10875;50.444;30.540;2022-07-06T05:55:03;26.70;97.00
21429;DHT22;10875;50.444;30.540;2022-07-06T05:57:28;26.80;97.00
21429;DHT22;10875;50.444;30.540;2022-07-06T05:59:54;27.00;97.50
21429;DHT22;10875;50.444;30.540;2022-07-06T06:02:19;27.20;97.20
21429;DHT22;10875;50.444;30.540;2022-07-06T06:04:45;27.30;97.30
21429;DHT22;10875;50.444;30.540;2022-07-06T06:07:10;27.30;97.50
21429;DHT22;10875;50.444;30.540;2022-07-06T06:09:36;27.40;97.00
21429;DHT22;10875;50.444;30.540;2022-07-06T06:12:01;27.40;96.70
21429;DHT22;10875;50.444;30.540;2022-07-06T06:14:27;27.40;97.00
21429;DHT22;10875;50.444;30.540;2022-07-06T06:16:52;27.50;96.40
21429;DHT22;10875;50.444;30.540;2022-07-06T06:19:17;27.40;96.30
21429;DHT22;10875;50.444;30.540;2022-07-06T06:21:43;27.40;96.60
21429;DHT22;10875;50.444;30.540;2022-07-06T06:24:08;27.50;96.60
21429;DHT22;10875;50.444;30.540;2022-07-06T06:26:34;27.50;96.30
21429;DHT22;10875;50.444;30.540;2022-07-06T06:28:59;27.60;95.90
21429;DHT22;10875;50.444;30.540;2022-07-06T06:31:25;27.70;96.00
21429;DHT22;10875;50.444;30.540;2022-07-06T06:33:50;27.80;96.10
21429;DHT22;10875;50.444;30.540;2022-07-06T06:36:18;28.00;94.90
21429;DHT22;10875;50.444;30.540;2022-07-06T06:38:43;28.10;95.00
21429;DHT22;10875;50.444;30.540;2022-07-06T06:41:09;28.10;94.90
21429;DHT22;10875;50.444;30.540;2022-07-06T06:43:34;28.10;94.90
21429;DHT22;10875;50.444;30.540;2022-07-06T06:46:00;28.10;94.80
21429;DHT22;10875;50.444;30.540;2022-07-06T06:48:25;28.10;95.00
21429;DHT22;10875;50.444;30.540;2022-07-06T06:50:51;28.10;94.90
21429;DHT22;10875;50.444;30.540;2022-07-06T06:53:16;28.10;95.20
21429;DHT22;10875;50.444;30.540;2022-07-06T06:55:42;28.20;94.70
21429;DHT22;10875;50.444;30.540;2022-07-06T06:58:07;28.30;93.60
21429;DHT22;10875;50.444;30.540;2022-07-06T07:00:33;28.40;93.70
21429;DHT22;10875;50.444;30.540;2022-07-06T07:02:58;28.50;93.20
21429;DHT22;10875;50.444;30.540;2022-07-06T07:05:24;28.60;93.10
21429;DHT22;10875;50.444;30.540;2022-07-06T07:07:49;28.70;93.00
21429;DHT22;10875;50.444;30.540;2022-07-06T07:10:15;28.80;93.70
21429;DHT22;10875;50.444;30.540;2022-07-06T07:12:44;29.00;93.80
21429;DHT22;10875;50.444;30.540;2022-07-06T07:15:10;29.00;94.00
21429;DHT22;10875;50.444;30.540;2022-07-06T07:17:35;29.10;93.50
21429;DHT22;10875;50.444;30.540;2022-07-06T07:20:01;29.10;93.80
21429;DHT22;10875;50.444;30.540;2022-07-06T07:22:26;29.10;93.70
21429;DHT22;10875;50.444;30.540;2022-07-06T07:24:52;29.20;93.70
21429;DHT22;10875;50.444;30.540;2022-07-06T07:27:17;29.40;92.70
21429;DHT22;10875;50.444;30.540;2022-07-06T07:29:43;29.50;92.40
21429;DHT22;10875;50.444;30.540;2022-07-06T07:32:08;29.60;92.20
21429;DHT22;10875;50.444;30.540;2022-07-06T07:34:34;29.60;92.30
21429;DHT22;10875;50.444;30.540;2022-07-06T07:36:59;29.70;92.00
21429;DHT22;10875;50.444;30.540;2022-07-06T07:39:25;29.70;91.60
21429;DHT22;10875;50.444;30.540;2022-07-06T07:41:50;29.70;91.60
21429;DHT22;10875;50.444;30.540;2022-07-06T07:44:16;29.70;91.90
21429;DHT22;10875;50.444;30.540;2022-07-06T07:46:42;29.80;92.00
21429;DHT22;10875;50.444;30.540;2022-07-06T07:49:07;30.00;91.40
21429;DHT22;10875;50.444;30.540;2022-07-06T07:51:32;30.10;91.30
21429;DHT22;10875;50.444;30.540;2022-07-06T07:53:58;30.20;91.10
21429;DHT22;10875;50.444;30.540;2022-07-06T07:56:24;30.30;91.00
21429;DHT22;10875;50.444;30.540;2022-07-06T07:58:49;30.40;90.90
21429;DHT22;10875;50.444;30.540;2022-07-06T08:01:15;30.50;91.10
21429;DHT22;10875;50.444;30.540;2022-07-06T08:03:40;30.70;90.50
21429;DHT22;10875;50.444;30.540;2022-07-06T08:06:05;30.80;90.30
21429;DHT22;10875;50.444;30.540;2022-07-06T08:08:31;30.60;90.50
21429;DHT22;10875;50.444;30.540;2022-07-06T08:10:56;30.70;90.60
21429;DHT22;10875;50.444;30.540;2022-07-06T08:13:22;30.80;90.10
21429;DHT22;10875;50.444;30.540;2022-07-06T08:15:47;30.90;90.20
21429;DHT22;10875;50.444;30.540;2022-07-06T08:18:13;31.00;90.00
21429;DHT22;10875;50.444;30.540;2022-07-06T08:20:38;31.10;88.10
21429;DHT22;10875;50.444;30.540;2022-07-06T08:23:04;31.20;88.60
21429;DHT22;10875;50.444;30.540;2022-07-06T08:25:30;31.20;88.00
21429;DHT22;10875;50.444;30.540;2022-07-06T08:27:56;31.30;87.90
21429;DHT22;10875;50.444;30.540;2022-07-06T08:30:21;31.40;87.80
21429;DHT22;10875;50.444;30.540;2022-07-06T08:32:47;31.60;86.60
21429;DHT22;10875;50.444;30.540;2022-07-06T08:35:12;31.50;87.20
21429;DHT22;10875;50.444;30.540;2022-07-06T08:37:38;31.40;87.90
21429;DHT22;10875;50.444;30.540;2022-07-06T08:40:04;31.50;88.00
21429;DHT22;10875;50.444;30.540;2022-07-06T08:42:30;31.80;85.90
21429;DHT22;10875;50.444;30.540;2022-07-06T08:45:00;31.90;85.70
21429;DHT22;10875;50.444;30.540;2022-07-06T08:47:26;31.90;85.80
21429;DHT22;10875;50.444;30.540;2022-07-06T08:49:53;32.20;84.10
21429;DHT22;10875;50.444;30.540;2022-07-06T08:52:18;32.50;84.50
21429;DHT22;10875;50.444;30.540;2022-07-06T08:54:44;32.60;81.90
21429;DHT22;10875;50.444;30.540;2022-07-06T08:57:10;32.40;81.70
21429;DHT22;10875;50.444;30.540;2022-07-06T08:59:35;31.90;82.60
21429;DHT22;10875;50.444;30.540;2022-07-06T09:02:01;31.50;83.90
21429;DHT22;10875;50.444;30.540;2022-07-06T09:04:28;31.90;83.40
21429;DHT22;10875;50.444;30.540;2022-07-06T09:06:53;32.50;82.70
21429;DHT22;10875;50.444;30.540;2022-07-06T09:09:20;33.10;80.30
21429;DHT22;10875;50.444;30.540;2022-07-06T09:11:47;33.50;78.80
21429;DHT22;10875;50.444;30.540;2022-07-06T09:14:13;33.70;78.70
21429;DHT22;10875;50.444;30.540;2022-07-06T09:16:38;33.50;77.80
21429;DHT22;10875;50.444;30.540;2022-07-06T09:19:04;33.50;77.20
21429;DHT22;10875;50.444;30.540;2022-07-06T09:21:30;33.60;77.40
21429;DHT22;10875;50.444;30.540;2022-07-06T09:23:59;33.60;75.70
21429;DHT22;10875;50.444;30.540;2022-07-06T09:26:25;33.70;76.50
21429;DHT22;10875;50.444;30.540;2022-07-06T09:28:51;34.00;74.60
21429;DHT22;10875;50.444;30.540;2022-07-06T09:31:17;33.90;74.30
21429;DHT22;10875;50.444;30.540;2022-07-06T09:36:37;33.30;75.60
21429;DHT22;10875;50.444;30.540;2022-07-06T09:41:41;33.70;73.40
21429;DHT22;10875;50.444;30.540;2022-07-06T09:44:06;33.80;73.50
21429;DHT22;10875;50.444;30.540;2022-07-06T09:46:41;33.60;73.20
21429;DHT22;10875;50.444;30.540;2022-07-06T09:49:07;33.50;73.40
21429;DHT22;10875;50.444;30.540;2022-07-06T09:51:36;33.10;74.20
21429;DHT22;10875;50.444;30.540;2022-07-06T09:54:06;33.00;73.60
21429;DHT22;10875;50.444;30.540;2022-07-06T09:56:36;33.10;73.60
21429;DHT22;10875;50.444;30.540;2022-07-06T09:59:12;33.30;74.10
21429;DHT22;10875;50.444;30.540;2022-07-06T10:01:38;33.70;73.60
21429;DHT22;10875;50.444;30.540;2022-07-06T10:04:05;33.70;72.80
21429;DHT22;10875;50.444;30.540;2022-07-06T10:06:30;33.50;73.30
21429;DHT22;10875;50.444;30.540;2022-07-06T10:08:57;33.40;73.10
21429;DHT22;10875;50.444;30.540;2022-07-06T10:11:22;33.10;73.30
21429;DHT22;10875;50.444;30.540;2022-07-06T10:13:49;33.20;74.30
21429;DHT22;10875;50.444;30.540;2022-07-06T10:16:15;33.40;72.70
21429;DHT22;10875;50.444;30.540;2022-07-06T10:18:41;33.40;72.10
21429;DHT22;10875;50.444;30.540;2022-07-06T10:21:06;33.40;71.70
21429;DHT22;10875;50.444;30.540;2022-07-06T10:23:33;33.20;72.20
21429;DHT22;10875;50.444;30.540;2022-07-06T10:25:59;33.20;72.40
21429;DHT22;10875;50.444;30.540;2022-07-06T10:28:25;33.40;70.40
21429;DHT22;10875;50.444;30.540;2022-07-06T10:30:51;33.20;69.70
21429;DHT22;10875;50.444;30.540;2022-07-06T10:33:17;33.60;71.30
21429;DHT22;10875;50.444;30.540;2022-07-06T10:35:43;33.70;70.70
21429;DHT22;10875;50.444;30.540;2022-07-06T10:38:10;33.70;70.30
21429;DHT22;10875;50.444;30.540;2022-07-06T10:40:37;34.10;70.20
21429;DHT22;10875;50.444;30.540;2022-07-06T10:43:23;34.30;69.90
21429;DHT22;10875;50.444;30.540;2022-07-06T10:53:12;33.80;69.50
21429;DHT22;10875;50.444;30.540;2022-07-06T10:55:38;33.70;69.90
21429;DHT22;10875;50.444;30.540;2022-07-06T10:58:04;33.50;70.60
21429;DHT22;10875;50.444;30.540;2022-07-06T11:03:30;33.30;71.50
21429;DHT22;10875;50.444;30.540;2022-07-06T11:06:15;33.90;70.90
21429;DHT22;10875;50.444;30.540;2022-07-06T11:08:48;34.40;70.80
21429;DHT22;10875;50.444;30.540;2022-07-06T11:14:05;35.30;69.00
21429;DHT22;10875;50.444;30.540;2022-07-06T11:16:32;35.30;67.40
21429;DHT22;10875;50.444;30.540;2022-07-06T11:21:35;34.60;67.90
21429;DHT22;10875;50.444;30.540;2022-07-06T11:24:01;34.40;68.70
21429;DHT22;10875;50.444;30.540;2022-07-06T11:26:26;34.30;68.30
21429;DHT22;10875;50.444;30.540;2022-07-06T11:28:52;34.40;68.10
21429;DHT22;10875;50.444;30.540;2022-07-06T11:31:18;34.60;68.20
21429;DHT22;10875;50.444;30.540;2022-07-06T11:33:47;34.80;67.60
21429;DHT22;10875;50.444;30.540;2022-07-06T11:36:13;34.70;67.40
21429;DHT22;10875;50.444;30.540;2022-07-06T11:38:40;34.60;67.70
21429;DHT22;10875;50.444;30.540;2022-07-06T11:41:05;34.40;68.40
21429;DHT22;10875;50.444;30.540;2022-07-06T11:43:31;34.40;68.90
21429;DHT22;10875;50.444;30.540;2022-07-06T11:45:57;34.80;68.60
21429;DHT22;10875;50.444;30.540;2022-07-06T11:48:22;34.70;68.10
21429;DHT22;10875;50.444;30.540;2022-07-06T11:51:00;34.40;67.10
21429;DHT22;10875;50.444;30.540;2022-07-06T11:53:25;34.10;67.80
21429;DHT22;10875;50.444;30.540;2022-07-06T11:55:52;33.90;67.90
21429;DHT22;10875;50.444;30.540;2022-07-06T11:58:18;33.60;68.00
21429;DHT22;10875;50.444;30.540;2022-07-06T12:01:01;33.70;68.30
21429;DHT22;10875;50.444;30.540;2022-07-06T12:03:27;33.90;67.70
21429;DHT22;10875;50.444;30.540;2022-07-06T12:05:53;33.80;68.40
21429;DHT22;10875;50.444;30.540;2022-07-06T12:08:18;33.50;69.00
21429;DHT22;10875;50.444;30.540;2022-07-06T12:10:44;33.40;69.00
21429;DHT22;10875;50.444;30.540;2022-07-06T12:13:09;33.30;69.00
21429;DHT22;10875;50.444;30.540;2022-07-06T12:15:35;33.30;69.20
21429;DHT22;10875;50.444;30.540;2022-07-06T12:18:00;33.30;69.10
21429;DHT22;10875;50.444;30.540;2022-07-06T12:20:26;33.20;69.10
21429;DHT22;10875;50.444;30.540;2022-07-06T12:23:00;33.10;69.40
21429;DHT22;10875;50.444;30.540;2022-07-06T12:25:30;33.10;69.20
21429;DHT22;10875;50.444;30.540;2022-07-06T12:27:55;33.10;69.50
21429;DHT22;10875;50.444;30.540;2022-07-06T12:30:21;32.80;70.00
21429;DHT22;10875;50.444;30.540;2022-07-06T12:32:46;32.90;70.50
21429;DHT22;10875;50.444;30.540;2022-07-06T12:35:12;32.90;70.40
21429;DHT22;10875;50.444;30.540;2022-07-06T12:37:38;33.00;70.20
21429;DHT22;10875;50.444;30.540;2022-07-06T12:40:13;33.10;70.60
21429;DHT22;10875;50.444;30.540;2022-07-06T12:42:46;33.10;69.90
21429;DHT22;10875;50.444;30.540;2022-07-06T12:45:12;32.80;70.40
21429;DHT22;10875;50.444;30.540;2022-07-06T12:47:37;32.50;70.60
21429;DHT22;10875;50.444;30.540;2022-07-06T12:50:09;32.50;70.80
21429;DHT22;10875;50.444;30.540;2022-07-06T12:52:35;32.40;70.90
21429;DHT22;10875;50.444;30.540;2022-07-06T12:55:02;32.40;71.30
21429;DHT22;10875;50.444;30.540;2022-07-06T12:57:41;32.30;71.60
21429;DHT22;10875;50.444;30.540;2022-07-06T13:00:07;32.20;73.00
21429;DHT22;10875;50.444;30.540;2022-07-06T13:02:33;31.80;74.40
21429;DHT22;10875;50.444;30.540;2022-07-06T13:05:02;31.40;75.60
21429;DHT22;10875;50.444;30.540;2022-07-06T13:07:29;31.00;76.60
21429;DHT22;10875;50.444;30.540;2022-07-06T13:09:57;30.70;77.40
21429;DHT22;10875;50.444;30.540;2022-07-06T13:12:23;30.60;78.20
21429;DHT22;10875;50.444;30.540;2022-07-06T13:14:49;30.50;78.10
21429;DHT22;10875;50.444;30.540;2022-07-06T13:17:15;30.40;78.40
21429;DHT22;10875;50.444;30.540;2022-07-06T13:19:41;30.20;78.60
21429;DHT22;10875;50.444;30.540;2022-07-06T13:22:06;29.90;79.40
21429;DHT22;10875;50.444;30.540;2022-07-06T13:24:32;29.60;80.30
21429;DHT22;10875;50.444;30.540;2022-07-06T13:26:57;29.50;81.30
21429;DHT22;10875;50.444;30.540;2022-07-06T13:29:23;29.30;84.20
21429;DHT22;10875;50.444;30.540;2022-07-06T13:31:49;28.90;86.60
21429;DHT22;10875;50.444;30.540;2022-07-06T13:34:15;28.50;90.00
21429;DHT22;10875;50.444;30.540;2022-07-06T13:36:41;27.90;91.40
21429;DHT22;10875;50.444;30.540;2022-07-06T13:39:06;27.50;92.60
21429;DHT22;10875;50.444;30.540;2022-07-06T13:41:32;27.20;94.00
21429;DHT22;10875;50.444;30.540;2022-07-06T13:43:58;27.00;95.20
21429;DHT22;10875;50.444;30.540;2022-07-06T13:46:26;26.70;98.50
21429;DHT22;10875;50.444;30.540;2022-07-06T13:48:52;26.30;99.90
21429;DHT22;10875;50.444;30.540;2022-07-06T13:51:17;25.90;99.90
21429;DHT22;10875;50.444;30.540;2022-07-06T13:53:43;25.70;99.90
21429;DHT22;10875;50.444;30.540;2022-07-06T13:56:09;25.60;99.90
21429;DHT22;10875;50.444;30.540;2022-07-06T13:58:34;25.50;99.90
21429;DHT22;10875;50.444;30.540;2022-07-06T14:01:00;25.50;99.90
21429;DHT22;10875;50.444;30.540;2022-07-06T14:03:25;25.50;99.90
21429;DHT22;10875;50.444;30.540;2022-07-06T14:06:01;25.40;99.90
21429;DHT22;10875;50.444;30.540;2022-07-06T14:08:29;25.30;99.90
21429;DHT22;10875;50.444;30.540;2022-07-06T14:10:55;25.20;99.90
21429;DHT22;10875;50.444;30.540;2022-07-06T14:13:21;25.10;99.90
21429;DHT22;10875;50.444;30.540;2022-07-06T14:15:47;24.90;99.90
21429;DHT22;10875;50.444;30.540;2022-07-06T14:18:14;24.80;99.90
21429;DHT22;10875;50.444;30.540;2022-07-06T14:20:43;24.80;99.90
21429;DHT22;10875;50.444;30.540;2022-07-06T14:23:08;24.70;99.90
21429;DHT22;10875;50.444;30.540;2022-07-06T14:25:33;24.50;99.90
21429;DHT22;10875;50.444;30.540;2022-07-06T14:27:59;24.20;99.90
21429;DHT22;10875;50.444;30.540;2022-07-06T14:30:25;24.10;99.90
21429;DHT22;10875;50.444;30.540;2022-07-06T14:32:51;23.90;99.90
21429;DHT22;10875;50.444;30.540;2022-07-06T14:35:16;23.80;99.90
21429;DHT22;10875;50.444;30.540;2022-07-06T14:37:42;23.70;99.90
21429;DHT22;10875;50.444;30.540;2022-07-06T14:40:07;23.70;99.90
21429;DHT22;10875;50.444;30.540;2022-07-06T14:42:33;23.60;99.90
21429;DHT22;10875;50.444;30.540;2022-07-06T14:44:59;23.50;99.90
21429;DHT22;10875;50.444;30.540;2022-07-06T14:47:24;23.50;99.90
21429;DHT22;10875;50.444;30.540;2022-07-06T14:49:49;23.50;99.90
21429;DHT22;10875;50.444;30.540;2022-07-06T14:52:16;23.50;99.90
21429;DHT22;10875;50.444;30.540;2022-07-06T14:54:41;23.50;99.90
21429;DHT22;10875;50.444;30.540;2022-07-06T14:57:07;23.50;99.90
21429;DHT22;10875;50.444;30.540;2022-07-06T14:59:33;23.50;99.90
21429;DHT22;10875;50.444;30.540;2022-07-06T15:01:59;23.40;99.90
21429;DHT22;10875;50.444;30.540;2022-07-06T15:04:24;23.30;99.90
21429;DHT22;10875;50.444;30.540;2022-07-06T15:06:50;23.20;99.90
21429;DHT22;10875;50.444;30.540;2022-07-06T15:09:15;23.10;99.90
21429;DHT22;10875;50.444;30.540;2022-07-06T15:11:41;23.10;99.90
21429;DHT22;10875;50.444;30.540;2022-07-06T15:14:07;23.10;99.90
21429;DHT22;10875;50.444;30.540;2022-07-06T15:16:32;23.10;99.90
21429;DHT22;10875;50.444;30.540;2022-07-06T15:18:58;23.10;99.90
21429;DHT22;10875;50.444;30.540;2022-07-06T15:21:24;23.10;99.90
21429;DHT22;10875;50.444;30.540;2022-07-06T15:23:49;23.10;99.90
21429;DHT22;10875;50.444;30.540;2022-07-06T15:26:15;23.30;99.90
21429;DHT22;10875;50.444;30.540;2022-07-06T15:28:40;23.40;99.90
21429;DHT22;10875;50.444;30.540;2022-07-06T15:31:05;23.40;99.90